Merrimack River @ Lowell, Ma

Merrimack River at Lowell
 Total Drainage Area: 4,635 sq. miles 
 Drainage Area Controlled by Corps Dams: 1,619 sq. miles (35%) 
 Warning Flow/Stage: 28,500 cfs / 49.0 feet 
 Flood Flow/Stage: 45,100 cfs / 52.0 feet 
Date Time
(Eastern)
Stage
(ft)
Flow
(cfs)
CSM
(cfs / sq. mi.)
Jun-25 01:30 am 43.65 5,847 1.3
Jun-25 12:30 am 43.58 5,643 1.2
Jun-24 11:30 pm 43.60 5,701 1.2
Jun-24 10:30 pm 43.55 5,557 1.2
Jun-24 09:30 pm 43.36 5,010 1.1
Jun-24 08:30 pm 43.37 5,039 1.1
Jun-24 07:30 pm 43.28 4,782 1.0
Jun-24 06:30 pm 43.27 4,754 1.0
Jun-24 05:30 pm 43.27 4,754 1.0
Jun-24 04:30 pm 43.30 4,838 1.0
Jun-24 03:30 pm 43.35 4,981 1.1
Jun-24 02:30 pm 43.19 4,531 1.0
Jun-24 01:30 pm 43.29 4,810 1.0
Jun-24 12:30 pm 43.20 4,559 1.0
Jun-24 11:30 am 43.24 4,670 1.0
Jun-24 10:30 am 43.19 4,531 1.0
Jun-24 09:30 am 43.31 4,867 1.1
Jun-24 08:30 am 43.30 4,838 1.0
Jun-24 07:30 am 43.18 4,504 1.0
Jun-24 06:30 am 43.13 4,362 .9
Jun-24 05:30 am 43.11 4,301 .9
Jun-24 04:30 am 43.11 4,301 .9
Jun-24 03:30 am 43.10 4,271 .9
Jun-24 02:30 am 43.16 4,449 1.0
Jun-24 01:30 am 43.20 4,559 1.0
Report Generated June 25, 2024 02:34 am